sensor_id;sensor_type;location;lat;lon;timestamp;P1;durP1;ratioP1;P2;durP2;ratioP2
71091;SDS011;58751;50.708;7.134;2022-10-18T00:01:54;7.53;;;6.20;;
71091;SDS011;58751;50.708;7.134;2022-10-18T00:04:19;6.30;;;5.63;;
71091;SDS011;58751;50.708;7.134;2022-10-18T00:06:46;7.53;;;6.67;;
71091;SDS011;58751;50.708;7.134;2022-10-18T00:09:11;8.70;;;6.60;;
71091;SDS011;58751;50.708;7.134;2022-10-18T00:11:36;6.93;;;6.00;;
71091;SDS011;58751;50.708;7.134;2022-10-18T00:14:01;7.50;;;6.77;;
71091;SDS011;58751;50.708;7.134;2022-10-18T00:16:26;6.87;;;5.90;;
71091;SDS011;58751;50.708;7.134;2022-10-18T00:18:52;10.30;;;7.03;;
71091;SDS011;58751;50.708;7.134;2022-10-18T00:21:17;8.23;;;7.03;;
71091;SDS011;58751;50.708;7.134;2022-10-18T00:23:45;8.10;;;7.20;;
71091;SDS011;58751;50.708;7.134;2022-10-18T00:26:11;10.73;;;6.13;;
71091;SDS011;58751;50.708;7.134;2022-10-18T00:28:37;11.13;;;7.20;;
71091;SDS011;58751;50.708;7.134;2022-10-18T00:31:12;8.40;;;7.00;;
71091;SDS011;58751;50.708;7.134;2022-10-18T00:33:37;11.20;;;7.90;;
71091;SDS011;58751;50.708;7.134;2022-10-18T00:36:03;12.23;;;7.00;;
71091;SDS011;58751;50.708;7.134;2022-10-18T00:38:28;7.60;;;6.50;;
71091;SDS011;58751;50.708;7.134;2022-10-18T00:40:55;10.07;;;7.50;;
71091;SDS011;58751;50.708;7.134;2022-10-18T00:43:20;11.77;;;6.73;;
71091;SDS011;58751;50.708;7.134;2022-10-18T00:45:45;12.13;;;7.00;;
71091;SDS011;58751;50.708;7.134;2022-10-18T00:48:10;11.00;;;6.17;;
71091;SDS011;58751;50.708;7.134;2022-10-18T00:50:36;8.70;;;7.33;;
71091;SDS011;58751;50.708;7.134;2022-10-18T00:53:02;10.03;;;6.60;;
71091;SDS011;58751;50.708;7.134;2022-10-18T00:55:29;7.90;;;6.97;;
71091;SDS011;58751;50.708;7.134;2022-10-18T00:57:56;6.70;;;6.00;;
71091;SDS011;58751;50.708;7.134;2022-10-18T01:00:22;8.23;;;6.80;;
71091;SDS011;58751;50.708;7.134;2022-10-18T01:02:47;9.03;;;6.63;;
71091;SDS011;58751;50.708;7.134;2022-10-18T01:05:13;9.83;;;7.00;;
71091;SDS011;58751;50.708;7.134;2022-10-18T01:07:44;8.97;;;6.63;;
71091;SDS011;58751;50.708;7.134;2022-10-18T01:10:16;8.27;;;6.10;;
71091;SDS011;58751;50.708;7.134;2022-10-18T01:12:46;10.67;;;6.60;;
71091;SDS011;58751;50.708;7.134;2022-10-18T01:15:16;9.07;;;7.00;;
71091;SDS011;58751;50.708;7.134;2022-10-18T01:17:46;7.70;;;6.30;;
71091;SDS011;58751;50.708;7.134;2022-10-18T01:20:32;11.13;;;7.30;;
71091;SDS011;58751;50.708;7.134;2022-10-18T01:23:02;6.70;;;6.10;;
71091;SDS011;58751;50.708;7.134;2022-10-18T01:25:33;8.20;;;7.10;;
71091;SDS011;58751;50.708;7.134;2022-10-18T01:28:03;9.70;;;6.63;;
71091;SDS011;58751;50.708;7.134;2022-10-18T01:30:40;7.60;;;6.80;;
71091;SDS011;58751;50.708;7.134;2022-10-18T01:33:12;7.33;;;6.67;;
71091;SDS011;58751;50.708;7.134;2022-10-18T01:35:41;10.50;;;7.13;;
71091;SDS011;58751;50.708;7.134;2022-10-18T01:38:08;7.40;;;6.63;;
71091;SDS011;58751;50.708;7.134;2022-10-18T01:40:34;8.40;;;7.00;;
71091;SDS011;58751;50.708;7.134;2022-10-18T01:43:00;9.90;;;7.27;;
71091;SDS011;58751;50.708;7.134;2022-10-18T01:45:26;8.60;;;6.67;;
71091;SDS011;58751;50.708;7.134;2022-10-18T01:47:53;10.17;;;7.10;;
71091;SDS011;58751;50.708;7.134;2022-10-18T01:50:27;8.63;;;7.73;;
71091;SDS011;58751;50.708;7.134;2022-10-18T01:52:52;9.87;;;7.37;;
71091;SDS011;58751;50.708;7.134;2022-10-18T01:55:17;7.03;;;6.33;;
71091;SDS011;58751;50.708;7.134;2022-10-18T01:57:49;8.57;;;6.57;;
71091;SDS011;58751;50.708;7.134;2022-10-18T02:00:18;8.43;;;7.17;;
71091;SDS011;58751;50.708;7.134;2022-10-18T02:02:45;7.80;;;7.10;;
71091;SDS011;58751;50.708;7.134;2022-10-18T02:05:16;8.60;;;6.77;;
71091;SDS011;58751;50.708;7.134;2022-10-18T02:07:46;7.03;;;6.43;;
71091;SDS011;58751;50.708;7.134;2022-10-18T02:10:14;8.20;;;7.40;;
71091;SDS011;58751;50.708;7.134;2022-10-18T02:12:41;10.47;;;7.87;;
71091;SDS011;58751;50.708;7.134;2022-10-18T02:15:08;9.60;;;7.30;;
71091;SDS011;58751;50.708;7.134;2022-10-18T02:17:33;9.57;;;7.40;;
71091;SDS011;58751;50.708;7.134;2022-10-18T02:19:59;12.90;;;7.60;;
71091;SDS011;58751;50.708;7.134;2022-10-18T02:22:28;10.90;;;7.60;;
71091;SDS011;58751;50.708;7.134;2022-10-18T02:24:56;8.43;;;7.63;;
71091;SDS011;58751;50.708;7.134;2022-10-18T02:27:23;8.47;;;7.47;;
71091;SDS011;58751;50.708;7.134;2022-10-18T02:29:48;11.63;;;7.87;;
71091;SDS011;58751;50.708;7.134;2022-10-18T02:32:15;11.10;;;8.17;;
71091;SDS011;58751;50.708;7.134;2022-10-18T02:34:42;11.90;;;9.67;;
71091;SDS011;58751;50.708;7.134;2022-10-18T02:37:09;9.93;;;7.00;;
71091;SDS011;58751;50.708;7.134;2022-10-18T02:39:37;9.70;;;8.30;;
71091;SDS011;58751;50.708;7.134;2022-10-18T02:42:05;8.90;;;7.80;;
71091;SDS011;58751;50.708;7.134;2022-10-18T02:44:30;13.53;;;8.70;;
71091;SDS011;58751;50.708;7.134;2022-10-18T02:46:55;8.33;;;7.40;;
71091;SDS011;58751;50.708;7.134;2022-10-18T02:49:21;8.83;;;7.70;;
71091;SDS011;58751;50.708;7.134;2022-10-18T02:51:46;9.83;;;7.93;;
71091;SDS011;58751;50.708;7.134;2022-10-18T02:54:11;9.27;;;8.37;;
71091;SDS011;58751;50.708;7.134;2022-10-18T02:56:38;10.40;;;8.20;;
71091;SDS011;58751;50.708;7.134;2022-10-18T02:59:03;11.10;;;8.90;;
71091;SDS011;58751;50.708;7.134;2022-10-18T03:01:28;12.87;;;9.33;;
71091;SDS011;58751;50.708;7.134;2022-10-18T03:03:53;14.40;;;10.50;;
71091;SDS011;58751;50.708;7.134;2022-10-18T03:06:18;13.80;;;11.00;;
71091;SDS011;58751;50.708;7.134;2022-10-18T03:08:44;17.87;;;10.30;;
71091;SDS011;58751;50.708;7.134;2022-10-18T03:11:09;14.70;;;10.23;;
71091;SDS011;58751;50.708;7.134;2022-10-18T03:13:35;12.80;;;9.30;;
71091;SDS011;58751;50.708;7.134;2022-10-18T03:16:01;11.80;;;9.87;;
71091;SDS011;58751;50.708;7.134;2022-10-18T03:18:26;14.97;;;10.30;;
71091;SDS011;58751;50.708;7.134;2022-10-18T03:20:51;17.00;;;11.63;;
71091;SDS011;58751;50.708;7.134;2022-10-18T03:23:16;11.63;;;9.23;;
71091;SDS011;58751;50.708;7.134;2022-10-18T03:25:41;11.57;;;9.37;;
71091;SDS011;58751;50.708;7.134;2022-10-18T03:28:07;11.70;;;10.20;;
71091;SDS011;58751;50.708;7.134;2022-10-18T03:30:33;9.53;;;8.20;;
71091;SDS011;58751;50.708;7.134;2022-10-18T03:32:58;12.17;;;9.00;;
71091;SDS011;58751;50.708;7.134;2022-10-18T03:35:24;10.73;;;9.10;;
71091;SDS011;58751;50.708;7.134;2022-10-18T03:37:49;9.60;;;7.60;;
71091;SDS011;58751;50.708;7.134;2022-10-18T03:40:14;10.97;;;8.03;;
71091;SDS011;58751;50.708;7.134;2022-10-18T03:42:39;7.93;;;7.20;;
71091;SDS011;58751;50.708;7.134;2022-10-18T03:45:05;8.90;;;7.87;;
71091;SDS011;58751;50.708;7.134;2022-10-18T03:47:32;13.77;;;8.30;;
71091;SDS011;58751;50.708;7.134;2022-10-18T03:49:57;9.27;;;7.90;;
71091;SDS011;58751;50.708;7.134;2022-10-18T03:52:22;10.23;;;7.43;;
71091;SDS011;58751;50.708;7.134;2022-10-18T03:54:48;8.53;;;6.73;;
71091;SDS011;58751;50.708;7.134;2022-10-18T03:57:13;7.30;;;6.60;;
71091;SDS011;58751;50.708;7.134;2022-10-18T03:59:38;5.93;;;5.40;;
71091;SDS011;58751;50.708;7.134;2022-10-18T04:02:03;8.60;;;7.43;;
71091;SDS011;58751;50.708;7.134;2022-10-18T04:04:30;6.73;;;5.53;;
71091;SDS011;58751;50.708;7.134;2022-10-18T04:06:55;6.37;;;5.60;;
71091;SDS011;58751;50.708;7.134;2022-10-18T04:09:20;7.87;;;6.13;;
71091;SDS011;58751;50.708;7.134;2022-10-18T04:11:46;7.30;;;5.70;;
71091;SDS011;58751;50.708;7.134;2022-10-18T04:14:13;8.07;;;6.20;;
71091;SDS011;58751;50.708;7.134;2022-10-18T04:16:38;6.53;;;5.90;;
71091;SDS011;58751;50.708;7.134;2022-10-18T04:19:03;4.73;;;4.33;;
71091;SDS011;58751;50.708;7.134;2022-10-18T04:21:30;6.30;;;5.20;;
71091;SDS011;58751;50.708;7.134;2022-10-18T04:23:55;5.10;;;4.60;;
71091;SDS011;58751;50.708;7.134;2022-10-18T04:26:20;5.30;;;4.80;;
71091;SDS011;58751;50.708;7.134;2022-10-18T04:28:46;5.43;;;4.93;;
71091;SDS011;58751;50.708;7.134;2022-10-18T04:31:11;4.90;;;3.60;;
71091;SDS011;58751;50.708;7.134;2022-10-18T04:33:36;6.47;;;4.10;;
71091;SDS011;58751;50.708;7.134;2022-10-18T04:36:01;4.60;;;4.20;;
71091;SDS011;58751;50.708;7.134;2022-10-18T04:38:28;3.60;;;3.30;;
71091;SDS011;58751;50.708;7.134;2022-10-18T04:40:53;4.80;;;4.30;;
71091;SDS011;58751;50.708;7.134;2022-10-18T04:43:18;4.60;;;3.83;;
71091;SDS011;58751;50.708;7.134;2022-10-18T04:45:43;6.90;;;4.80;;
71091;SDS011;58751;50.708;7.134;2022-10-18T04:48:09;5.67;;;4.80;;
71091;SDS011;58751;50.708;7.134;2022-10-18T04:50:34;5.67;;;3.90;;
71091;SDS011;58751;50.708;7.134;2022-10-18T04:52:59;4.33;;;3.93;;
71091;SDS011;58751;50.708;7.134;2022-10-18T04:55:26;5.10;;;4.43;;
71091;SDS011;58751;50.708;7.134;2022-10-18T04:57:51;5.87;;;4.97;;
71091;SDS011;58751;50.708;7.134;2022-10-18T05:00:16;5.30;;;4.80;;
71091;SDS011;58751;50.708;7.134;2022-10-18T05:02:41;5.27;;;4.80;;
71091;SDS011;58751;50.708;7.134;2022-10-18T05:05:07;5.93;;;4.90;;
71091;SDS011;58751;50.708;7.134;2022-10-18T05:07:32;5.50;;;5.00;;
71091;SDS011;58751;50.708;7.134;2022-10-18T05:09:57;5.93;;;5.17;;
71091;SDS011;58751;50.708;7.134;2022-10-18T05:12:24;6.97;;;4.93;;
71091;SDS011;58751;50.708;7.134;2022-10-18T05:14:49;5.50;;;4.97;;
71091;SDS011;58751;50.708;7.134;2022-10-18T05:17:14;6.40;;;5.70;;
71091;SDS011;58751;50.708;7.134;2022-10-18T05:19:39;6.20;;;5.60;;
71091;SDS011;58751;50.708;7.134;2022-10-18T05:22:04;5.93;;;5.07;;
71091;SDS011;58751;50.708;7.134;2022-10-18T05:24:30;5.47;;;4.97;;
71091;SDS011;58751;50.708;7.134;2022-10-18T05:26:55;6.27;;;5.67;;
71091;SDS011;58751;50.708;7.134;2022-10-18T05:29:21;7.27;;;6.57;;
71091;SDS011;58751;50.708;7.134;2022-10-18T05:31:47;5.10;;;4.60;;
71091;SDS011;58751;50.708;7.134;2022-10-18T05:34:12;7.50;;;6.47;;
71091;SDS011;58751;50.708;7.134;2022-10-18T05:36:37;10.17;;;6.67;;
71091;SDS011;58751;50.708;7.134;2022-10-18T05:39:02;8.10;;;6.00;;
71091;SDS011;58751;50.708;7.134;2022-10-18T05:41:28;6.53;;;5.70;;
71091;SDS011;58751;50.708;7.134;2022-10-18T05:43:53;7.43;;;5.70;;
71091;SDS011;58751;50.708;7.134;2022-10-18T05:46:19;6.10;;;5.60;;
71091;SDS011;58751;50.708;7.134;2022-10-18T05:48:48;6.17;;;5.67;;
71091;SDS011;58751;50.708;7.134;2022-10-18T05:51:13;6.43;;;5.83;;
71091;SDS011;58751;50.708;7.134;2022-10-18T05:53:38;6.43;;;5.83;;
71091;SDS011;58751;50.708;7.134;2022-10-18T05:56:04;6.33;;;5.50;;
71091;SDS011;58751;50.708;7.134;2022-10-18T05:58:29;8.27;;;5.90;;
71091;SDS011;58751;50.708;7.134;2022-10-18T06:00:56;7.00;;;5.77;;
71091;SDS011;58751;50.708;7.134;2022-10-18T06:03:23;6.80;;;5.30;;
71091;SDS011;58751;50.708;7.134;2022-10-18T06:05:48;6.37;;;5.77;;
71091;SDS011;58751;50.708;7.134;2022-10-18T06:08:14;6.77;;;6.07;;
71091;SDS011;58751;50.708;7.134;2022-10-18T06:10:39;9.87;;;5.80;;
71091;SDS011;58751;50.708;7.134;2022-10-18T06:13:04;6.47;;;5.77;;
71091;SDS011;58751;50.708;7.134;2022-10-18T06:15:29;6.43;;;5.80;;
71091;SDS011;58751;50.708;7.134;2022-10-18T06:17:54;6.47;;;5.20;;
71091;SDS011;58751;50.708;7.134;2022-10-18T06:20:21;7.23;;;6.53;;
71091;SDS011;58751;50.708;7.134;2022-10-18T06:22:46;24.63;;;7.93;;
71091;SDS011;58751;50.708;7.134;2022-10-18T06:25:11;5.90;;;5.47;;
71091;SDS011;58751;50.708;7.134;2022-10-18T06:27:37;9.63;;;7.47;;
71091;SDS011;58751;50.708;7.134;2022-10-18T06:30:02;9.53;;;6.10;;
71091;SDS011;58751;50.708;7.134;2022-10-18T06:32:27;6.30;;;5.47;;
71091;SDS011;58751;50.708;7.134;2022-10-18T06:34:52;6.33;;;5.23;;
71091;SDS011;58751;50.708;7.134;2022-10-18T06:37:19;6.37;;;5.10;;
71091;SDS011;58751;50.708;7.134;2022-10-18T06:39:44;6.90;;;4.67;;
71091;SDS011;58751;50.708;7.134;2022-10-18T06:42:09;5.40;;;4.90;;
71091;SDS011;58751;50.708;7.134;2022-10-18T06:44:34;4.90;;;4.40;;
71091;SDS011;58751;50.708;7.134;2022-10-18T06:47:00;5.60;;;4.70;;
71091;SDS011;58751;50.708;7.134;2022-10-18T06:49:25;4.30;;;3.70;;
71091;SDS011;58751;50.708;7.134;2022-10-18T06:51:52;4.73;;;4.40;;
71091;SDS011;58751;50.708;7.134;2022-10-18T06:54:18;5.27;;;4.10;;
71091;SDS011;58751;50.708;7.134;2022-10-18T06:56:44;4.07;;;3.67;;
71091;SDS011;58751;50.708;7.134;2022-10-18T06:59:09;4.40;;;4.00;;
71091;SDS011;58751;50.708;7.134;2022-10-18T07:01:34;4.47;;;3.20;;
71091;SDS011;58751;50.708;7.134;2022-10-18T07:03:59;4.43;;;4.00;;
71091;SDS011;58751;50.708;7.134;2022-10-18T07:06:25;5.20;;;3.40;;
71091;SDS011;58751;50.708;7.134;2022-10-18T07:08:50;3.43;;;3.20;;
71091;SDS011;58751;50.708;7.134;2022-10-18T07:11:17;3.53;;;3.23;;
71091;SDS011;58751;50.708;7.134;2022-10-18T07:13:43;3.47;;;2.93;;
71091;SDS011;58751;50.708;7.134;2022-10-18T07:16:09;4.53;;;4.00;;
71091;SDS011;58751;50.708;7.134;2022-10-18T07:18:35;4.03;;;3.63;;
71091;SDS011;58751;50.708;7.134;2022-10-18T07:21:01;4.33;;;3.93;;
71091;SDS011;58751;50.708;7.134;2022-10-18T07:23:26;3.30;;;3.10;;
71091;SDS011;58751;50.708;7.134;2022-10-18T07:25:51;3.93;;;3.43;;
71091;SDS011;58751;50.708;7.134;2022-10-18T07:28:18;4.60;;;3.37;;
71091;SDS011;58751;50.708;7.134;2022-10-18T07:30:43;3.30;;;3.00;;
71091;SDS011;58751;50.708;7.134;2022-10-18T07:33:08;3.23;;;2.93;;
71091;SDS011;58751;50.708;7.134;2022-10-18T07:35:34;6.47;;;3.37;;
71091;SDS011;58751;50.708;7.134;2022-10-18T07:37:59;5.53;;;3.10;;
71091;SDS011;58751;50.708;7.134;2022-10-18T07:40:24;3.70;;;3.00;;
71091;SDS011;58751;50.708;7.134;2022-10-18T07:42:49;3.10;;;2.90;;
71091;SDS011;58751;50.708;7.134;2022-10-18T07:45:16;3.37;;;2.63;;
71091;SDS011;58751;50.708;7.134;2022-10-18T07:47:41;3.00;;;2.77;;
71091;SDS011;58751;50.708;7.134;2022-10-18T07:50:07;3.37;;;3.07;;
71091;SDS011;58751;50.708;7.134;2022-10-18T07:52:32;3.63;;;2.97;;
71091;SDS011;58751;50.708;7.134;2022-10-18T07:54:57;3.07;;;2.87;;
71091;SDS011;58751;50.708;7.134;2022-10-18T07:57:22;4.03;;;3.20;;
71091;SDS011;58751;50.708;7.134;2022-10-18T07:59:47;2.50;;;2.30;;
71091;SDS011;58751;50.708;7.134;2022-10-18T08:02:14;2.30;;;2.10;;
71091;SDS011;58751;50.708;7.134;2022-10-18T08:04:39;3.13;;;2.83;;
71091;SDS011;58751;50.708;7.134;2022-10-18T08:07:05;3.67;;;3.47;;
71091;SDS011;58751;50.708;7.134;2022-10-18T08:09:30;5.93;;;2.87;;
71091;SDS011;58751;50.708;7.134;2022-10-18T08:11:55;3.57;;;3.27;;
71091;SDS011;58751;50.708;7.134;2022-10-18T08:14:20;3.67;;;3.23;;
71091;SDS011;58751;50.708;7.134;2022-10-18T08:16:45;2.90;;;2.60;;
71091;SDS011;58751;50.708;7.134;2022-10-18T08:19:12;3.97;;;3.67;;
71091;SDS011;58751;50.708;7.134;2022-10-18T08:21:37;3.00;;;2.73;;
71091;SDS011;58751;50.708;7.134;2022-10-18T08:24:03;3.57;;;3.37;;
71091;SDS011;58751;50.708;7.134;2022-10-18T08:26:28;4.83;;;3.00;;
71091;SDS011;58751;50.708;7.134;2022-10-18T08:28:53;4.70;;;3.73;;
71091;SDS011;58751;50.708;7.134;2022-10-18T08:31:18;4.07;;;3.00;;
71091;SDS011;58751;50.708;7.134;2022-10-18T08:33:43;3.63;;;3.30;;
71091;SDS011;58751;50.708;7.134;2022-10-18T08:36:11;4.17;;;3.80;;
71091;SDS011;58751;50.708;7.134;2022-10-18T08:38:37;4.03;;;3.70;;
71091;SDS011;58751;50.708;7.134;2022-10-18T08:41:12;3.43;;;3.13;;
71091;SDS011;58751;50.708;7.134;2022-10-18T08:43:43;4.63;;;3.93;;
71091;SDS011;58751;50.708;7.134;2022-10-18T08:46:10;4.40;;;3.50;;
71091;SDS011;58751;50.708;7.134;2022-10-18T08:48:38;4.40;;;4.00;;
71091;SDS011;58751;50.708;7.134;2022-10-18T08:51:05;4.50;;;3.10;;
71091;SDS011;58751;50.708;7.134;2022-10-18T08:53:38;2.27;;;2.03;;
71091;SDS011;58751;50.708;7.134;2022-10-18T08:56:05;3.13;;;2.80;;
71091;SDS011;58751;50.708;7.134;2022-10-18T08:58:31;2.70;;;2.50;;
71091;SDS011;58751;50.708;7.134;2022-10-18T09:00:58;2.50;;;2.33;;
71091;SDS011;58751;50.708;7.134;2022-10-18T09:03:29;3.50;;;3.20;;
71091;SDS011;58751;50.708;7.134;2022-10-18T09:06:00;3.47;;;3.17;;
71091;SDS011;58751;50.708;7.134;2022-10-18T09:08:30;2.77;;;2.57;;
71091;SDS011;58751;50.708;7.134;2022-10-18T09:11:02;3.10;;;2.87;;
71091;SDS011;58751;50.708;7.134;2022-10-18T09:16:11;3.30;;;2.97;;
71091;SDS011;58751;50.708;7.134;2022-10-18T09:18:43;3.80;;;3.50;;
71091;SDS011;58751;50.708;7.134;2022-10-18T09:21:13;3.80;;;3.43;;
71091;SDS011;58751;50.708;7.134;2022-10-18T09:23:43;5.40;;;3.87;;
71091;SDS011;58751;50.708;7.134;2022-10-18T09:26:12;4.27;;;3.90;;
71091;SDS011;58751;50.708;7.134;2022-10-18T09:28:40;3.90;;;3.60;;
71091;SDS011;58751;50.708;7.134;2022-10-18T09:31:08;4.10;;;3.80;;
71091;SDS011;58751;50.708;7.134;2022-10-18T09:33:42;5.50;;;3.30;;
71091;SDS011;58751;50.708;7.134;2022-10-18T09:36:10;4.10;;;3.50;;
71091;SDS011;58751;50.708;7.134;2022-10-18T09:38:39;4.90;;;3.30;;
71091;SDS011;58751;50.708;7.134;2022-10-18T09:41:07;6.07;;;3.47;;
71091;SDS011;58751;50.708;7.134;2022-10-18T09:43:38;4.10;;;3.70;;
71091;SDS011;58751;50.708;7.134;2022-10-18T09:46:05;4.13;;;3.73;;
71091;SDS011;58751;50.708;7.134;2022-10-18T09:48:32;6.40;;;3.23;;
71091;SDS011;58751;50.708;7.134;2022-10-18T09:50:59;4.03;;;3.33;;
71091;SDS011;58751;50.708;7.134;2022-10-18T09:53:29;3.70;;;3.40;;
71091;SDS011;58751;50.708;7.134;2022-10-18T09:55:58;4.53;;;3.63;;
71091;SDS011;58751;50.708;7.134;2022-10-18T09:58:24;3.90;;;3.60;;
71091;SDS011;58751;50.708;7.134;2022-10-18T10:00:52;4.20;;;3.80;;
71091;SDS011;58751;50.708;7.134;2022-10-18T10:03:17;4.53;;;3.47;;
71091;SDS011;58751;50.708;7.134;2022-10-18T10:05:42;4.47;;;3.70;;
71091;SDS011;58751;50.708;7.134;2022-10-18T10:08:08;3.10;;;2.80;;
71091;SDS011;58751;50.708;7.134;2022-10-18T10:10:33;3.60;;;3.37;;
71091;SDS011;58751;50.708;7.134;2022-10-18T10:13:03;5.10;;;4.10;;
71091;SDS011;58751;50.708;7.134;2022-10-18T10:15:29;4.70;;;3.80;;
71091;SDS011;58751;50.708;7.134;2022-10-18T10:17:56;5.33;;;4.83;;
71091;SDS011;58751;50.708;7.134;2022-10-18T10:20:22;5.13;;;4.63;;
71091;SDS011;58751;50.708;7.134;2022-10-18T10:22:48;6.40;;;5.80;;
71091;SDS011;58751;50.708;7.134;2022-10-18T10:25:25;5.70;;;5.03;;
71091;SDS011;58751;50.708;7.134;2022-10-18T10:27:52;5.93;;;5.10;;
71091;SDS011;58751;50.708;7.134;2022-10-18T10:30:21;6.90;;;6.27;;
71091;SDS011;58751;50.708;7.134;2022-10-18T10:32:49;6.83;;;5.87;;
71091;SDS011;58751;50.708;7.134;2022-10-18T10:35:23;7.00;;;5.60;;
71091;SDS011;58751;50.708;7.134;2022-10-18T10:37:49;8.10;;;6.03;;
71091;SDS011;58751;50.708;7.134;2022-10-18T10:40:16;13.23;;;5.70;;
71091;SDS011;58751;50.708;7.134;2022-10-18T10:45:30;9.90;;;7.17;;
71091;SDS011;58751;50.708;7.134;2022-10-18T10:48:00;6.30;;;5.70;;
71091;SDS011;58751;50.708;7.134;2022-10-18T10:50:27;7.67;;;6.97;;
71091;SDS011;58751;50.708;7.134;2022-10-18T10:52:53;9.37;;;8.23;;
71091;SDS011;58751;50.708;7.134;2022-10-18T10:55:19;9.73;;;6.67;;
71091;SDS011;58751;50.708;7.134;2022-10-18T10:57:46;9.07;;;7.37;;
71091;SDS011;58751;50.708;7.134;2022-10-18T11:02:54;8.23;;;6.93;;
71091;SDS011;58751;50.708;7.134;2022-10-18T11:05:30;11.83;;;7.60;;
71091;SDS011;58751;50.708;7.134;2022-10-18T11:07:55;12.03;;;7.60;;
71091;SDS011;58751;50.708;7.134;2022-10-18T11:10:22;15.70;;;9.50;;
71091;SDS011;58751;50.708;7.134;2022-10-18T11:12:50;10.47;;;9.20;;
71091;SDS011;58751;50.708;7.134;2022-10-18T11:15:18;12.50;;;8.67;;
71091;SDS011;58751;50.708;7.134;2022-10-18T11:17:45;11.10;;;8.33;;
71091;SDS011;58751;50.708;7.134;2022-10-18T11:20:15;11.23;;;8.63;;
71091;SDS011;58751;50.708;7.134;2022-10-18T11:22:45;13.40;;;10.80;;
71091;SDS011;58751;50.708;7.134;2022-10-18T11:25:15;12.70;;;8.77;;
71091;SDS011;58751;50.708;7.134;2022-10-18T11:27:41;15.97;;;11.30;;
71091;SDS011;58751;50.708;7.134;2022-10-18T11:30:16;12.40;;;9.90;;
71091;SDS011;58751;50.708;7.134;2022-10-18T11:32:44;11.97;;;9.00;;
71091;SDS011;58751;50.708;7.134;2022-10-18T11:35:25;13.17;;;11.10;;
71091;SDS011;58751;50.708;7.134;2022-10-18T11:37:59;16.83;;;11.50;;
71091;SDS011;58751;50.708;7.134;2022-10-18T11:40:33;16.60;;;11.60;;
71091;SDS011;58751;50.708;7.134;2022-10-18T11:43:04;17.00;;;13.73;;
71091;SDS011;58751;50.708;7.134;2022-10-18T11:45:36;17.03;;;11.93;;
71091;SDS011;58751;50.708;7.134;2022-10-18T11:48:09;12.37;;;10.30;;
71091;SDS011;58751;50.708;7.134;2022-10-18T11:50:37;14.17;;;11.00;;
71091;SDS011;58751;50.708;7.134;2022-10-18T11:53:08;11.40;;;9.43;;
71091;SDS011;58751;50.708;7.134;2022-10-18T11:55:38;11.27;;;9.53;;
71091;SDS011;58751;50.708;7.134;2022-10-18T11:58:09;11.83;;;9.90;;
71091;SDS011;58751;50.708;7.134;2022-10-18T12:00:41;15.37;;;11.30;;
71091;SDS011;58751;50.708;7.134;2022-10-18T12:03:14;14.40;;;11.47;;
71091;SDS011;58751;50.708;7.134;2022-10-18T12:05:40;18.27;;;13.43;;
71091;SDS011;58751;50.708;7.134;2022-10-18T12:08:09;22.13;;;14.37;;
71091;SDS011;58751;50.708;7.134;2022-10-18T12:10:35;19.23;;;14.93;;
71091;SDS011;58751;50.708;7.134;2022-10-18T12:13:02;19.90;;;14.20;;
71091;SDS011;58751;50.708;7.134;2022-10-18T12:15:29;15.83;;;13.50;;
71091;SDS011;58751;50.708;7.134;2022-10-18T12:17:56;19.00;;;13.50;;
71091;SDS011;58751;50.708;7.134;2022-10-18T12:20:24;16.90;;;14.03;;
71091;SDS011;58751;50.708;7.134;2022-10-18T12:22:52;17.40;;;13.90;;
71091;SDS011;58751;50.708;7.134;2022-10-18T12:25:21;20.83;;;15.67;;
71091;SDS011;58751;50.708;7.134;2022-10-18T12:27:47;17.90;;;14.10;;
71091;SDS011;58751;50.708;7.134;2022-10-18T12:30:17;19.37;;;13.93;;
71091;SDS011;58751;50.708;7.134;2022-10-18T12:32:44;17.57;;;13.60;;
71091;SDS011;58751;50.708;7.134;2022-10-18T12:35:11;17.67;;;13.73;;
71091;SDS011;58751;50.708;7.134;2022-10-18T12:40:28;19.27;;;14.77;;
71091;SDS011;58751;50.708;7.134;2022-10-18T12:42:56;25.43;;;17.07;;
71091;SDS011;58751;50.708;7.134;2022-10-18T12:45:26;20.83;;;17.40;;
71091;SDS011;58751;50.708;7.134;2022-10-18T12:47:52;19.43;;;14.23;;
71091;SDS011;58751;50.708;7.134;2022-10-18T12:50:24;21.30;;;16.90;;
71091;SDS011;58751;50.708;7.134;2022-10-18T12:52:59;23.37;;;17.10;;
71091;SDS011;58751;50.708;7.134;2022-10-18T12:55:28;23.80;;;16.63;;
71091;SDS011;58751;50.708;7.134;2022-10-18T12:58:01;27.57;;;19.50;;
71091;SDS011;58751;50.708;7.134;2022-10-18T13:03:27;24.87;;;18.27;;
71091;SDS011;58751;50.708;7.134;2022-10-18T13:05:54;28.97;;;19.73;;
71091;SDS011;58751;50.708;7.134;2022-10-18T13:11:14;27.60;;;18.53;;
71091;SDS011;58751;50.708;7.134;2022-10-18T13:13:50;23.07;;;17.47;;
71091;SDS011;58751;50.708;7.134;2022-10-18T13:16:21;22.93;;;16.67;;
71091;SDS011;58751;50.708;7.134;2022-10-18T13:18:50;23.63;;;16.47;;
71091;SDS011;58751;50.708;7.134;2022-10-18T13:21:17;24.30;;;18.27;;
71091;SDS011;58751;50.708;7.134;2022-10-18T13:23:47;23.13;;;17.93;;
71091;SDS011;58751;50.708;7.134;2022-10-18T13:26:18;27.77;;;18.40;;
71091;SDS011;58751;50.708;7.134;2022-10-18T13:28:48;23.67;;;16.83;;
71091;SDS011;58751;50.708;7.134;2022-10-18T13:31:18;23.27;;;17.40;;
71091;SDS011;58751;50.708;7.134;2022-10-18T13:33:44;24.70;;;16.57;;
71091;SDS011;58751;50.708;7.134;2022-10-18T13:36:18;20.80;;;15.00;;
71091;SDS011;58751;50.708;7.134;2022-10-18T13:38:44;20.67;;;13.80;;
71091;SDS011;58751;50.708;7.134;2022-10-18T13:41:11;19.93;;;15.90;;
71091;SDS011;58751;50.708;7.134;2022-10-18T13:43:55;21.87;;;17.60;;
71091;SDS011;58751;50.708;7.134;2022-10-18T13:46:21;24.27;;;17.90;;
71091;SDS011;58751;50.708;7.134;2022-10-18T13:48:47;19.40;;;16.03;;
71091;SDS011;58751;50.708;7.134;2022-10-18T13:53:58;20.87;;;17.07;;
71091;SDS011;58751;50.708;7.134;2022-10-18T13:56:44;26.50;;;17.87;;
71091;SDS011;58751;50.708;7.134;2022-10-18T13:59:27;22.77;;;17.27;;
71091;SDS011;58751;50.708;7.134;2022-10-18T14:02:00;22.23;;;17.10;;
71091;SDS011;58751;50.708;7.134;2022-10-18T14:04:37;20.60;;;14.87;;
71091;SDS011;58751;50.708;7.134;2022-10-18T14:07:04;25.23;;;20.33;;
71091;SDS011;58751;50.708;7.134;2022-10-18T14:09:32;19.60;;;17.30;;
71091;SDS011;58751;50.708;7.134;2022-10-18T14:12:00;23.87;;;18.83;;
71091;SDS011;58751;50.708;7.134;2022-10-18T14:14:29;24.40;;;17.90;;
71091;SDS011;58751;50.708;7.134;2022-10-18T14:16:56;22.50;;;16.67;;
71091;SDS011;58751;50.708;7.134;2022-10-18T14:19:25;21.10;;;16.43;;
71091;SDS011;58751;50.708;7.134;2022-10-18T14:21:54;22.00;;;16.07;;
71091;SDS011;58751;50.708;7.134;2022-10-18T14:24:22;21.57;;;17.30;;
71091;SDS011;58751;50.708;7.134;2022-10-18T14:29:30;24.33;;;16.67;;
71091;SDS011;58751;50.708;7.134;2022-10-18T14:31:55;23.10;;;17.50;;
71091;SDS011;58751;50.708;7.134;2022-10-18T14:34:20;22.03;;;16.90;;
71091;SDS011;58751;50.708;7.134;2022-10-18T14:36:46;23.87;;;17.43;;
71091;SDS011;58751;50.708;7.134;2022-10-18T14:39:16;21.00;;;16.07;;
71091;SDS011;58751;50.708;7.134;2022-10-18T14:41:46;24.73;;;16.57;;
71091;SDS011;58751;50.708;7.134;2022-10-18T14:44:15;22.27;;;16.57;;
71091;SDS011;58751;50.708;7.134;2022-10-18T14:46:43;22.00;;;17.10;;
71091;SDS011;58751;50.708;7.134;2022-10-18T14:49:08;27.77;;;19.73;;
71091;SDS011;58751;50.708;7.134;2022-10-18T14:51:34;30.43;;;21.70;;
71091;SDS011;58751;50.708;7.134;2022-10-18T14:54:00;26.80;;;20.10;;
71091;SDS011;58751;50.708;7.134;2022-10-18T14:56:26;27.10;;;19.60;;
71091;SDS011;58751;50.708;7.134;2022-10-18T14:58:52;28.90;;;19.27;;
71091;SDS011;58751;50.708;7.134;2022-10-18T15:01:19;26.63;;;19.33;;
71091;SDS011;58751;50.708;7.134;2022-10-18T15:03:46;29.17;;;19.60;;